aviador You're here:

SASA Decoded Metar

SALTA in ARGENTINA
Report Time2018-02-22 08:00:00
UTC Time2018-02-22 08:30:35
Flight Rules vfr VFR
Wind320° at 04 kt
W.Decomp.*RWY 02: 2.3 kt HW 3.3 kt LCW
RWY 24: 0.3 kt HW 4.0 kt RCW
W.Rank320° ranks 5
Current wind is above 320° avg. (3.1)
Visibility9999 m
Phenomena:N/A
Clouds:N/A
Expected CloudBase > 800 ft AGL from Temp-Dew spread
CeilingNone
Temp15°C (ISA +8)
Dew Point13°C (88% RH)
AAT14.5°C
QNH1020 hPa
Density Alt4,898 ft
Elevation3,990 ft
Report Wrong Elevation
Raw Report
SASA 220800Z 32004KT CAVOK 15/13 Q1020=

Extra information for SASA:More info

Metar Taf Metar & Taf Last 4 Metars F.Rules Stats Wind Profile Meteogram Temp Stats Airport Information Weather charts Add Link Nearby VenuesMetar ALERT Operation Metar Decoded Social comments